Time;durP1;ratioP1;P1;durP2;ratioP2;P2;SDS_P1;SDS_P2;PMS_P1;PMS_P2;Temp;Humidity;BMP_temperature;BMP_pressure;BME280_temperature;BME280_humidity;BME280_pressure;Samples;Min_cycle;Max_cycle;Signal;HPM_P1;HPM_P2
2022/11/18 00:01:13;;;;;;;;;;;;;;;8.49;nan;100654.34;4981323;28;19969;-32
2022/11/18 00:03:39;;;;;;;;;;;;;;;8.52;nan;100650.38;4981548;28;19934;-32
2022/11/18 00:06:05;;;;;;;;;;;;;;;8.53;nan;100652.00;4981969;28;19930;-31
2022/11/18 00:08:31;;;;;;;;;;;;;;;8.52;nan;100653.88;4984241;28;19918;-32
2022/11/18 00:10:57;;;;;;;;;;;;;;;8.51;nan;100648.75;4983907;28;19922;-31
2022/11/18 00:16:10;;;;;;;;;;;;;;;8.46;nan;100654.81;4983713;28;20016;-32
2022/11/18 00:18:35;;;;;;;;;;;;;;;8.48;nan;100655.41;4984220;28;20295;-32
2022/11/18 00:21:06;;;;;;;;;;;;;;;8.44;nan;100655.06;4981180;28;19926;-32
2022/11/18 00:23:31;;;;;;;;;;;;;;;8.44;nan;100651.59;4983892;28;20419;-32
2022/11/18 00:26:11;;;;;;;;;;;;;;;8.47;nan;100654.59;4984819;28;20004;-32
2022/11/18 00:28:36;;;;;;;;;;;;;;;8.52;nan;100653.88;4983318;28;20406;-31
2022/11/18 00:31:03;;;;;;;;;;;;;;;8.55;nan;100647.22;4983020;28;19921;-32
2022/11/18 00:33:28;;;;;;;;;;;;;;;8.55;nan;100639.22;4985181;28;20331;-32
2022/11/18 00:35:54;;;;;;;;;;;;;;;8.53;nan;100636.78;4983775;28;19921;-32
2022/11/18 00:38:19;;;;;;;;;;;;;;;8.51;nan;100641.56;4984493;28;20378;-32
2022/11/18 00:40:45;;;;;;;;;;;;;;;8.52;nan;100645.84;4983144;28;19929;-32
2022/11/18 00:43:10;;;;;;;;;;;;;;;8.53;nan;100649.34;4984939;28;20300;-32
2022/11/18 00:45:35;;;;;;;;;;;;;;;8.49;nan;100651.69;4984581;28;19950;-32
2022/11/18 00:48:01;;;;;;;;;;;;;;;8.40;nan;100653.88;4986737;28;19929;-32
2022/11/18 00:50:27;;;;;;;;;;;;;;;8.33;nan;100655.84;4987975;28;20386;-31
2022/11/18 00:52:52;;;;;;;;;;;;;;;8.31;nan;100659.81;4988930;28;20090;-32
2022/11/18 00:55:17;;;;;;;;;;;;;;;8.30;nan;100661.66;4987531;28;20743;-31
2022/11/18 00:57:43;;;;;;;;;;;;;;;8.29;nan;100669.91;4992707;28;19917;-32
2022/11/18 01:00:08;;;;;;;;;;;;;;;8.28;nan;100674.44;4987073;28;19918;-32
2022/11/18 01:02:34;;;;;;;;;;;;;;;8.30;nan;100669.69;4982593;28;19965;-31
2022/11/18 01:04:59;;;;;;;;;;;;;;;8.25;nan;100663.41;4988069;28;19933;-32
2022/11/18 01:07:24;;;;;;;;;;;;;;;8.33;nan;100658.53;4992775;28;19922;-32
2022/11/18 01:09:50;;;;;;;;;;;;;;;8.38;nan;100663.19;4988391;28;19917;-31
2022/11/18 01:14:59;;;;;;;;;;;;;;;8.35;nan;100647.63;4987645;28;20001;-32
2022/11/18 01:17:24;;;;;;;;;;;;;;;8.39;nan;100648.78;4988853;28;20361;-32
2022/11/18 01:19:50;;;;;;;;;;;;;;;8.27;nan;100654.13;4988044;28;20387;-32
2022/11/18 01:22:15;;;;;;;;;;;;;;;8.27;nan;100656.00;4985273;28;19987;-32
2022/11/18 01:24:40;;;;;;;;;;;;;;;8.22;nan;100638.00;4986760;28;20057;-31
2022/11/18 01:27:05;;;;;;;;;;;;;;;8.27;nan;100647.97;4987318;28;19968;-31
2022/11/18 01:29:31;;;;;;;;;;;;;;;8.29;nan;100645.88;4988309;28;20221;-32
2022/11/18 01:31:56;;;;;;;;;;;;;;;8.13;nan;100645.56;4983621;28;19965;-32
2022/11/18 01:34:21;;;;;;;;;;;;;;;8.05;nan;100645.09;4986388;28;20017;-31
2022/11/18 01:36:47;;;;;;;;;;;;;;;8.12;nan;100643.13;4982751;28;20000;-31
2022/11/18 01:39:12;;;;;;;;;;;;;;;8.09;nan;100639.06;4988800;28;20460;-31
2022/11/18 01:41:37;;;;;;;;;;;;;;;7.96;nan;100639.31;4986754;28;20372;-32
2022/11/18 01:44:04;;;;;;;;;;;;;;;7.88;nan;100651.13;4984962;28;20410;-32
2022/11/18 01:46:30;;;;;;;;;;;;;;;7.88;nan;100650.31;4988751;28;19917;-31
2022/11/18 01:49:01;;;;;;;;;;;;;;;7.85;nan;100650.78;4985751;28;19933;-31
2022/11/18 01:51:38;;;;;;;;;;;;;;;7.82;nan;100640.59;4987763;28;19925;-31
2022/11/18 01:54:13;;;;;;;;;;;;;;;7.79;nan;100638.38;4985289;28;19992;-32
2022/11/18 01:56:42;;;;;;;;;;;;;;;7.76;nan;100644.19;4985045;28;19973;-31
2022/11/18 01:59:12;;;;;;;;;;;;;;;7.78;nan;100640.25;4986439;28;20012;-31
2022/11/18 02:01:38;;;;;;;;;;;;;;;7.83;nan;100642.22;4986370;28;19918;-31
2022/11/18 02:04:04;;;;;;;;;;;;;;;7.85;nan;100643.59;4982928;28;20487;-32
2022/11/18 02:06:30;;;;;;;;;;;;;;;7.87;nan;100640.69;4986468;28;20048;-31
2022/11/18 02:08:56;;;;;;;;;;;;;;;7.92;nan;100638.16;4985309;28;19933;-32
2022/11/18 02:14:07;;;;;;;;;;;;;;;7.86;nan;100628.41;4984374;28;20208;-31
2022/11/18 02:17:02;;;;;;;;;;;;;;;7.85;nan;100638.25;4985755;28;19933;-31
2022/11/18 02:19:45;;;;;;;;;;;;;;;7.81;nan;100638.97;4916025;28;19955;-32
2022/11/18 02:22:13;;;;;;;;;;;;;;;7.83;nan;100636.88;4984058;28;19937;-32
2022/11/18 02:25:02;;;;;;;;;;;;;;;7.85;nan;100626.78;4985871;28;20020;-32
2022/11/18 02:27:42;;;;;;;;;;;;;;;7.75;nan;100632.72;4956856;28;19924;-31
2022/11/18 02:30:10;;;;;;;;;;;;;;;7.65;nan;100623.66;4984787;28;19940;-31
2022/11/18 02:32:53;;;;;;;;;;;;;;;7.61;nan;100625.16;4986847;28;19921;-31
2022/11/18 02:35:26;;;;;;;;;;;;;;;7.48;nan;100615.53;4984472;28;19964;-32
2022/11/18 02:38:01;;;;;;;;;;;;;;;7.55;nan;100613.59;4986725;28;19918;-32
2022/11/18 02:40:38;;;;;;;;;;;;;;;7.57;nan;100614.97;4987300;28;19918;-32
2022/11/18 02:43:10;;;;;;;;;;;;;;;7.51;nan;100620.41;4985857;28;19933;-32
2022/11/18 02:45:37;;;;;;;;;;;;;;;7.55;nan;100616.25;4986549;28;19918;-31
2022/11/18 02:48:07;;;;;;;;;;;;;;;7.55;nan;100617.06;4985226;28;19925;-32
2022/11/18 02:50:33;;;;;;;;;;;;;;;7.48;nan;100616.34;4985319;28;19949;-32
2022/11/18 02:53:00;;;;;;;;;;;;;;;7.49;nan;100625.97;4986388;28;19925;-31
2022/11/18 02:55:27;;;;;;;;;;;;;;;7.51;nan;100625.72;4988266;28;19949;-31
2022/11/18 02:57:53;;;;;;;;;;;;;;;7.53;nan;100629.78;4982991;28;19921;-32
2022/11/18 03:00:18;;;;;;;;;;;;;;;7.46;nan;100637.09;4986387;28;19932;-31
2022/11/18 03:02:46;;;;;;;;;;;;;;;7.35;nan;100637.88;4969177;28;19924;-31
2022/11/18 03:05:27;;;;;;;;;;;;;;;7.30;nan;100626.28;4984433;28;20535;-31
2022/11/18 03:08:01;;;;;;;;;;;;;;;7.19;nan;100627.91;4985965;28;19929;-32
2022/11/18 03:10:31;;;;;;;;;;;;;;;7.11;nan;100631.69;4986309;28;19918;-31
2022/11/18 03:13:15;;;;;;;;;;;;;;;7.07;nan;100622.53;4985973;28;19937;-31
2022/11/18 03:16:04;;;;;;;;;;;;;;;7.07;nan;100627.06;4985250;28;19933;-31
2022/11/18 03:18:38;;;;;;;;;;;;;;;7.13;nan;100632.28;4979665;28;20000;-31
2022/11/18 03:21:11;;;;;;;;;;;;;;;7.16;nan;100633.66;4984277;28;20301;-31
2022/11/18 03:23:40;;;;;;;;;;;;;;;7.21;nan;100631.97;4985435;28;20186;-32
2022/11/18 03:26:11;;;;;;;;;;;;;;;7.20;nan;100637.53;4985504;28;19921;-31
2022/11/18 03:28:43;;;;;;;;;;;;;;;7.23;nan;100634.38;4983258;28;19925;-32
2022/11/18 03:31:13;;;;;;;;;;;;;;;7.20;nan;100629.53;4986420;28;19922;-31
2022/11/18 03:33:42;;;;;;;;;;;;;;;7.17;nan;100630.75;4986589;28;20460;-30
2022/11/18 03:36:10;;;;;;;;;;;;;;;7.19;nan;100638.56;4984894;28;19926;-32
2022/11/18 03:38:38;;;;;;;;;;;;;;;7.16;nan;100641.66;4983859;28;19925;-31
2022/11/18 03:41:05;;;;;;;;;;;;;;;7.19;nan;100647.38;4984308;28;20051;-31
2022/11/18 03:43:34;;;;;;;;;;;;;;;7.16;nan;100650.47;4981365;28;19918;-31
2022/11/18 03:46:04;;;;;;;;;;;;;;;7.14;nan;100657.06;4986049;28;19921;-32
2022/11/18 03:48:33;;;;;;;;;;;;;;;7.04;nan;100657.63;4987098;28;19918;-31
2022/11/18 03:51:09;;;;;;;;;;;;;;;7.06;nan;100666.19;4985321;28;19971;-31
2022/11/18 03:53:36;;;;;;;;;;;;;;;7.02;nan;100669.56;4985500;28;19958;-31
2022/11/18 03:56:05;;;;;;;;;;;;;;;7.02;nan;100658.91;4986422;28;20212;-31
2022/11/18 03:58:44;;;;;;;;;;;;;;;7.06;nan;100666.19;4985513;28;19925;-32
2022/11/18 04:01:36;;;;;;;;;;;;;;;7.06;nan;100671.53;4983740;28;19991;-32
2022/11/18 04:04:01;;;;;;;;;;;;;;;7.08;nan;100681.97;4952914;28;20478;-31
2022/11/18 04:06:35;;;;;;;;;;;;;;;7.08;nan;100680.09;4986035;28;19918;-32
2022/11/18 04:09:03;;;;;;;;;;;;;;;7.03;nan;100679.16;4982434;28;19965;-32
2022/11/18 04:14:19;;;;;;;;;;;;;;;6.96;nan;100681.91;4985400;28;20610;-32
2022/11/18 04:16:48;;;;;;;;;;;;;;;6.93;nan;100680.50;4985018;28;20004;-32
2022/11/18 04:19:14;;;;;;;;;;;;;;;6.91;nan;100689.75;4984477;28;19968;-31
2022/11/18 04:21:39;;;;;;;;;;;;;;;6.86;nan;100686.97;4986079;28;19967;-32
2022/11/18 04:24:05;;;;;;;;;;;;;;;6.84;nan;100689.84;4989017;28;19964;-31
2022/11/18 04:26:30;;;;;;;;;;;;;;;6.79;nan;100695.03;4986644;28;20380;-31
2022/11/18 04:28:55;;;;;;;;;;;;;;;6.77;nan;100691.78;4989247;28;20461;-32
2022/11/18 04:31:21;;;;;;;;;;;;;;;6.72;nan;100691.66;4985507;28;19917;-31
2022/11/18 04:33:46;;;;;;;;;;;;;;;6.70;nan;100679.59;4987364;28;20125;-31
2022/11/18 04:36:11;;;;;;;;;;;;;;;6.68;nan;100690.47;4989228;28;19996;-31
2022/11/18 04:38:37;;;;;;;;;;;;;;;6.72;nan;100677.53;4988304;28;19949;-31
2022/11/18 04:41:02;;;;;;;;;;;;;;;6.73;nan;100682.63;4988654;28;20467;-32
2022/11/18 04:43:27;;;;;;;;;;;;;;;6.71;nan;100689.22;4988283;28;20017;-32
2022/11/18 04:45:52;;;;;;;;;;;;;;;6.72;nan;100691.66;4984691;28;19932;-31
2022/11/18 04:48:18;;;;;;;;;;;;;;;6.70;nan;100692.91;4989992;28;19925;-32
2022/11/18 04:50:43;;;;;;;;;;;;;;;6.68;nan;100693.13;4989917;28;19918;-32
2022/11/18 04:53:08;;;;;;;;;;;;;;;6.62;nan;100691.34;4986498;28;20392;-32
2022/11/18 04:55:34;;;;;;;;;;;;;;;6.61;nan;100687.88;4989055;28;20315;-32
2022/11/18 04:58:00;;;;;;;;;;;;;;;6.55;nan;100694.09;4985724;28;19925;-31
2022/11/18 05:00:25;;;;;;;;;;;;;;;6.60;nan;100698.75;4987814;28;19918;-32
2022/11/18 05:02:50;;;;;;;;;;;;;;;6.62;nan;100691.34;4987761;28;20315;-31
2022/11/18 05:05:15;;;;;;;;;;;;;;;6.64;nan;100697.25;4988944;28;19941;-31
2022/11/18 05:07:41;;;;;;;;;;;;;;;6.68;nan;100710.97;4989410;28;19917;-31
2022/11/18 05:10:06;;;;;;;;;;;;;;;6.71;nan;100707.84;4982985;28;20225;-32
2022/11/18 05:12:51;;;;;;;;;;;;;;;6.73;nan;100703.91;4988471;28;19931;-31
2022/11/18 05:15:17;;;;;;;;;;;;;;;6.76;nan;100705.31;4984833;28;19925;-31
2022/11/18 05:17:42;;;;;;;;;;;;;;;6.84;nan;100710.34;4989270;28;19921;-31
2022/11/18 05:20:08;;;;;;;;;;;;;;;6.83;nan;100708.72;4987042;28;21363;-32
2022/11/18 05:22:33;;;;;;;;;;;;;;;6.80;nan;100717.94;4989192;28;19961;-32
2022/11/18 05:24:59;;;;;;;;;;;;;;;6.78;nan;100712.03;4985439;28;19925;-31
2022/11/18 05:27:24;;;;;;;;;;;;;;;6.77;nan;100710.41;4989307;28;19924;-32
2022/11/18 05:29:50;;;;;;;;;;;;;;;6.80;nan;100719.81;4986553;28;19932;-32
2022/11/18 05:32:15;;;;;;;;;;;;;;;6.80;nan;100717.94;4988503;28;19929;-31
2022/11/18 05:34:41;;;;;;;;;;;;;;;6.87;nan;100721.38;4984841;28;19917;-32
2022/11/18 05:37:06;;;;;;;;;;;;;;;6.92;nan;100721.50;4986832;28;20504;-32
2022/11/18 05:39:32;;;;;;;;;;;;;;;6.96;nan;100727.19;4989737;28;19921;-32
2022/11/18 05:44:52;;;;;;;;;;;;;;;6.88;nan;100738.97;4962727;28;20265;-31
2022/11/18 05:47:18;;;;;;;;;;;;;;;6.93;nan;100733.78;4990106;28;19918;-31
2022/11/18 05:49:43;;;;;;;;;;;;;;;7.01;nan;100734.53;4987923;28;19922;-31
2022/11/18 05:52:08;;;;;;;;;;;;;;;7.06;nan;100732.81;4986341;28;19936;-32
2022/11/18 05:54:36;;;;;;;;;;;;;;;7.08;nan;100740.56;4982354;28;19918;-32
2022/11/18 05:57:02;;;;;;;;;;;;;;;7.06;nan;100750.63;4987909;28;20154;-31
2022/11/18 05:59:27;;;;;;;;;;;;;;;7.01;nan;100753.16;4986789;28;19922;-31
2022/11/18 06:02:05;;;;;;;;;;;;;;;6.99;nan;100750.69;4988311;28;20000;-32
2022/11/18 06:04:33;;;;;;;;;;;;;;;6.92;nan;100760.63;4987153;28;19936;-31
2022/11/18 06:07:04;;;;;;;;;;;;;;;6.92;nan;100755.31;4989479;28;20407;-31
2022/11/18 06:09:31;;;;;;;;;;;;;;;6.85;nan;100755.41;4985053;28;19924;-32
2022/11/18 06:11:58;;;;;;;;;;;;;;;6.59;nan;100755.69;4988188;28;19949;-31
2022/11/18 06:14:33;;;;;;;;;;;;;;;6.57;nan;100763.09;4984153;28;20052;-32
2022/11/18 06:17:01;;;;;;;;;;;;;;;6.41;nan;100764.47;4986017;28;19921;-31
2022/11/18 06:19:26;;;;;;;;;;;;;;;6.50;nan;100762.34;4986630;28;19918;-31
2022/11/18 06:21:52;;;;;;;;;;;;;;;6.54;nan;100766.19;4985724;28;19928;-32
2022/11/18 06:24:17;;;;;;;;;;;;;;;6.50;nan;100779.13;4984952;28;19948;-32
2022/11/18 06:26:43;;;;;;;;;;;;;;;6.49;nan;100777.50;4988557;28;19964;-31
2022/11/18 06:29:10;;;;;;;;;;;;;;;6.47;nan;100781.44;4987733;28;19984;-32
2022/11/18 06:31:35;;;;;;;;;;;;;;;6.47;nan;100776.91;4981814;28;20012;-32
2022/11/18 06:34:00;;;;;;;;;;;;;;;6.53;nan;100785.88;4984636;28;20020;-32
2022/11/18 06:36:26;;;;;;;;;;;;;;;6.44;nan;100797.81;4987376;28;19960;-32
2022/11/18 06:38:51;;;;;;;;;;;;;;;6.46;nan;100793.91;4985273;28;19918;-32
2022/11/18 06:41:16;;;;;;;;;;;;;;;6.47;nan;100800.88;4982803;28;20303;-31
2022/11/18 06:43:42;;;;;;;;;;;;;;;6.44;nan;100801.28;4985621;28;19929;-32
2022/11/18 06:48:53;;;;;;;;;;;;;;;6.53;nan;100797.31;4982023;28;19953;-32
2022/11/18 06:51:18;;;;;;;;;;;;;;;6.47;nan;100805.38;4984352;28;19985;-31
2022/11/18 06:53:44;;;;;;;;;;;;;;;6.43;nan;100815.63;4985159;28;19922;-31
2022/11/18 06:56:13;;;;;;;;;;;;;;;6.38;nan;100812.00;4984410;28;21023;-31
2022/11/18 06:58:39;;;;;;;;;;;;;;;6.40;nan;100815.25;4982184;28;19950;-32
2022/11/18 07:01:14;;;;;;;;;;;;;;;6.39;nan;100826.94;4984409;28;20402;-32
2022/11/18 07:03:40;;;;;;;;;;;;;;;6.29;nan;100830.09;4983287;28;19918;-32
2022/11/18 07:06:06;;;;;;;;;;;;;;;6.19;nan;100824.44;4983866;28;19943;-31
2022/11/18 07:08:33;;;;;;;;;;;;;;;6.28;nan;100833.78;4984920;28;20403;-31
2022/11/18 07:10:58;;;;;;;;;;;;;;;6.26;nan;100827.84;4982970;28;20335;-31
2022/11/18 07:13:24;;;;;;;;;;;;;;;6.35;nan;100832.69;4985703;28;19957;-31
2022/11/18 07:15:49;;;;;;;;;;;;;;;6.40;nan;100836.53;4981677;28;20312;-32
2022/11/18 07:18:14;;;;;;;;;;;;;;;6.39;nan;100841.06;4983037;28;20137;-32
2022/11/18 07:20:39;;;;;;;;;;;;;;;6.42;nan;100832.63;4977789;28;19961;-32
2022/11/18 07:23:05;;;;;;;;;;;;;;;6.45;nan;100839.38;4980170;28;20003;-31
2022/11/18 07:25:30;;;;;;;;;;;;;;;6.46;nan;100835.66;4983551;28;20387;-32
2022/11/18 07:27:56;;;;;;;;;;;;;;;6.53;nan;100847.09;4979909;28;19918;-32
2022/11/18 07:30:22;;;;;;;;;;;;;;;6.63;nan;100839.41;4981441;28;19924;-32
2022/11/18 07:32:47;;;;;;;;;;;;;;;6.68;nan;100838.75;4981578;28;19930;-31
2022/11/18 07:35:13;;;;;;;;;;;;;;;6.68;nan;100844.09;4980257;28;19948;-32
2022/11/18 07:37:38;;;;;;;;;;;;;;;6.60;nan;100850.50;4981183;28;19922;-32
2022/11/18 07:40:04;;;;;;;;;;;;;;;6.62;nan;100854.56;4984867;28;20337;-32
2022/11/18 07:42:41;;;;;;;;;;;;;;;6.57;nan;100865.06;4985336;28;19963;-31
2022/11/18 07:45:07;;;;;;;;;;;;;;;6.60;nan;100861.13;4985273;28;19948;-32
2022/11/18 07:47:32;;;;;;;;;;;;;;;6.69;nan;100856.38;4985383;28;19921;-32
2022/11/18 07:49:58;;;;;;;;;;;;;;;6.60;nan;100866.47;4985284;28;20090;-32
2022/11/18 07:52:23;;;;;;;;;;;;;;;6.61;nan;100865.44;4983124;28;20048;-31
2022/11/18 07:54:48;;;;;;;;;;;;;;;6.56;nan;100867.94;4983757;28;20280;-32
2022/11/18 07:57:14;;;;;;;;;;;;;;;6.69;nan;100877.66;4983278;28;20146;-32
2022/11/18 07:59:39;;;;;;;;;;;;;;;6.68;nan;100879.50;4983392;28;19922;-32
2022/11/18 08:02:05;;;;;;;;;;;;;;;6.63;nan;100880.16;4984122;28;19968;-31
2022/11/18 08:04:30;;;;;;;;;;;;;;;6.70;nan;100885.44;4983841;28;19928;-32
2022/11/18 08:06:56;;;;;;;;;;;;;;;6.67;nan;100880.53;4983642;28;20286;-32
2022/11/18 08:09:21;;;;;;;;;;;;;;;6.58;nan;100882.66;4982187;28;20089;-32
2022/11/18 08:11:46;;;;;;;;;;;;;;;6.62;nan;100880.38;4983978;28;19928;-32
2022/11/18 08:14:12;;;;;;;;;;;;;;;6.71;nan;100880.91;4984891;28;19930;-32
2022/11/18 08:16:37;;;;;;;;;;;;;;;6.72;nan;100888.69;4984597;28;20062;-32
2022/11/18 08:19:02;;;;;;;;;;;;;;;6.83;nan;100887.97;4980485;28;19922;-32
2022/11/18 08:21:27;;;;;;;;;;;;;;;6.80;nan;100890.25;4985975;28;19921;-32
2022/11/18 08:23:54;;;;;;;;;;;;;;;6.80;nan;100885.72;4979913;28;19968;-32
2022/11/18 08:26:20;;;;;;;;;;;;;;;6.68;nan;100897.34;4984558;28;20529;-32
2022/11/18 08:28:46;;;;;;;;;;;;;;;6.81;nan;100890.03;4983388;28;20399;-32
2022/11/18 08:31:23;;;;;;;;;;;;;;;6.88;nan;100904.09;4981859;28;19926;-31
2022/11/18 08:33:48;;;;;;;;;;;;;;;7.09;nan;100904.72;4981013;28;20012;-31
2022/11/18 08:36:15;;;;;;;;;;;;;;;7.26;nan;100911.09;4984259;28;20366;-32
2022/11/18 08:38:41;;;;;;;;;;;;;;;7.39;nan;100910.94;4983446;28;19989;-31
2022/11/18 08:41:06;;;;;;;;;;;;;;;7.46;nan;100910.84;4982808;28;20384;-32
2022/11/18 08:43:35;;;;;;;;;;;;;;;7.51;nan;100913.66;4982270;28;19921;-31
2022/11/18 08:46:00;;;;;;;;;;;;;;;7.66;nan;100918.63;4982696;28;19928;-32
2022/11/18 08:48:26;;;;;;;;;;;;;;;7.70;nan;100907.25;4983180;28;19922;-31
2022/11/18 08:50:51;;;;;;;;;;;;;;;7.73;nan;100914.84;4983205;28;19918;-31
2022/11/18 08:53:16;;;;;;;;;;;;;;;7.87;nan;100910.13;4981065;28;19968;-32
2022/11/18 08:55:42;;;;;;;;;;;;;;;7.94;nan;100912.72;4982578;28;20020;-32
2022/11/18 08:58:07;;;;;;;;;;;;;;;7.95;nan;100909.81;4982752;28;20290;-32
2022/11/18 09:00:32;;;;;;;;;;;;;;;8.10;nan;100918.22;4984141;28;19929;-32
2022/11/18 09:02:58;;;;;;;;;;;;;;;8.22;nan;100914.75;4982627;28;19929;-32
2022/11/18 09:05:23;;;;;;;;;;;;;;;8.37;nan;100909.84;4983274;28;19932;-32
2022/11/18 09:07:48;;;;;;;;;;;;;;;8.38;nan;100911.47;4981843;28;19922;-32
2022/11/18 09:10:14;;;;;;;;;;;;;;;8.28;nan;100920.03;4985196;28;19930;-32
2022/11/18 09:12:39;;;;;;;;;;;;;;;8.23;nan;100917.19;4987390;28;20470;-32
2022/11/18 09:15:05;;;;;;;;;;;;;;;8.23;nan;100933.22;4985622;28;20398;-31
2022/11/18 09:17:30;;;;;;;;;;;;;;;8.28;nan;100924.56;4987448;28;20026;-32
2022/11/18 09:19:56;;;;;;;;;;;;;;;8.36;nan;100921.56;4985597;28;20104;-32
2022/11/18 09:22:21;;;;;;;;;;;;;;;8.32;nan;100921.19;4988185;28;20410;-32
2022/11/18 09:24:46;;;;;;;;;;;;;;;8.34;nan;100927.13;4985079;28;19957;-32
2022/11/18 09:27:12;;;;;;;;;;;;;;;8.32;nan;100926.53;4987302;28;19925;-31
2022/11/18 09:29:37;;;;;;;;;;;;;;;8.25;nan;100930.31;4987462;28;20382;-32
2022/11/18 09:32:03;;;;;;;;;;;;;;;8.25;nan;100920.47;4986630;28;20005;-31
2022/11/18 09:34:28;;;;;;;;;;;;;;;8.40;nan;100928.88;4987534;28;19922;-31
2022/11/18 09:36:55;;;;;;;;;;;;;;;8.56;nan;100932.75;4987154;28;19956;-32
2022/11/18 09:39:21;;;;;;;;;;;;;;;8.66;nan;100934.88;4985473;28;19921;-32
2022/11/18 09:41:51;;;;;;;;;;;;;;;8.74;nan;100945.19;4986991;28;19984;-32
2022/11/18 09:44:17;;;;;;;;;;;;;;;8.77;nan;100937.53;4984584;28;19952;-32
2022/11/18 09:46:54;;;;;;;;;;;;;;;8.64;nan;100931.63;4986780;28;20334;-32
2022/11/18 09:49:39;;;;;;;;;;;;;;;8.79;nan;100940.78;4986728;28;20511;-32
2022/11/18 09:52:10;;;;;;;;;;;;;;;8.85;nan;100935.56;4985560;28;20049;-32
2022/11/18 09:54:36;;;;;;;;;;;;;;;8.86;nan;100939.88;4983900;28;20019;-32
2022/11/18 09:57:01;;;;;;;;;;;;;;;8.83;nan;100932.31;4984773;28;20351;-32
2022/11/18 09:59:29;;;;;;;;;;;;;;;8.79;nan;100926.59;4988167;28;19918;-31
2022/11/18 10:02:00;;;;;;;;;;;;;;;8.89;nan;100931.38;4985618;28;19926;-32
2022/11/18 10:04:27;;;;;;;;;;;;;;;9.11;nan;100931.59;4985335;28;19921;-32
2022/11/18 10:06:52;;;;;;;;;;;;;;;9.30;nan;100930.41;4986320;28;20017;-32
2022/11/18 10:09:31;;;;;;;;;;;;;;;9.33;nan;100935.28;4985226;28;20871;-31
2022/11/18 10:11:59;;;;;;;;;;;;;;;9.46;nan;100932.38;4985141;28;20044;-32
2022/11/18 10:14:43;;;;;;;;;;;;;;;9.56;nan;100932.59;4985667;28;19933;-32
2022/11/18 10:17:11;;;;;;;;;;;;;;;9.66;nan;100940.00;4985856;28;19921;-32
2022/11/18 10:19:37;;;;;;;;;;;;;;;9.79;nan;100937.06;4985094;28;20253;-32
2022/11/18 10:22:02;;;;;;;;;;;;;;;9.92;nan;100944.81;4985786;28;20380;-32
2022/11/18 10:24:42;;;;;;;;;;;;;;;9.86;nan;100942.25;4986623;28;19918;-32
2022/11/18 10:27:12;;;;;;;;;;;;;;;9.89;nan;100945.28;4983893;28;19921;-32
2022/11/18 10:29:38;;;;;;;;;;;;;;;9.80;nan;100954.72;4985867;28;19929;-32
2022/11/18 10:32:05;;;;;;;;;;;;;;;9.73;nan;100951.41;4985953;28;19922;-32
2022/11/18 10:34:32;;;;;;;;;;;;;;;9.82;nan;100952.63;4986366;28;19918;-39
2022/11/18 10:37:03;;;;;;;;;;;;;;;9.90;nan;100964.84;4984977;28;20531;-32
2022/11/18 10:39:29;;;;;;;;;;;;;;;9.92;nan;100963.56;4984937;28;19921;-32
2022/11/18 10:42:00;;;;;;;;;;;;;;;9.98;nan;100967.94;4985198;28;20281;-32
2022/11/18 10:44:36;;;;;;;;;;;;;;;9.89;nan;100965.91;4984500;28;19925;-32
2022/11/18 10:47:15;;;;;;;;;;;;;;;9.76;nan;100964.28;4984338;28;19987;-32
2022/11/18 10:49:40;;;;;;;;;;;;;;;9.77;nan;100959.75;4986140;28;20020;-32
2022/11/18 10:52:10;;;;;;;;;;;;;;;9.92;nan;100952.84;4985139;28;20012;-33
2022/11/18 10:54:36;;;;;;;;;;;;;;;10.06;nan;100968.63;4982131;28;20012;-32
2022/11/18 10:57:20;;;;;;;;;;;;;;;10.19;nan;100957.59;4983844;28;20017;-31
2022/11/18 10:59:49;;;;;;;;;;;;;;;10.33;nan;100964.31;4985929;28;19922;-33
2022/11/18 11:02:15;;;;;;;;;;;;;;;10.42;nan;100962.09;4981801;28;19937;-32
2022/11/18 11:04:40;;;;;;;;;;;;;;;10.51;nan;100965.97;4985188;28;19918;-32
2022/11/18 11:07:16;;;;;;;;;;;;;;;10.68;nan;100955.28;4984107;28;20016;-32
2022/11/18 11:09:42;;;;;;;;;;;;;;;10.85;nan;100958.75;4986123;28;20298;-32
2022/11/18 11:12:12;;;;;;;;;;;;;;;10.94;nan;100959.16;4985717;28;19929;-32
2022/11/18 11:14:52;;;;;;;;;;;;;;;10.89;nan;100951.84;4985218;28;19931;-33
2022/11/18 11:17:30;;;;;;;;;;;;;;;10.87;nan;100946.72;4986560;28;19921;-32
2022/11/18 11:20:18;;;;;;;;;;;;;;;10.86;nan;100957.69;4983590;28;20459;-32
2022/11/18 11:22:43;;;;;;;;;;;;;;;10.79;nan;100944.47;4983682;28;20411;-32
2022/11/18 11:25:16;;;;;;;;;;;;;;;10.92;nan;100947.88;4984844;28;20258;-32
2022/11/18 11:27:53;;;;;;;;;;;;;;;10.97;nan;100948.78;4986041;28;19928;-33
2022/11/18 11:30:19;;;;;;;;;;;;;;;11.16;nan;100952.00;4986072;28;19929;-32
2022/11/18 11:33:03;;;;;;;;;;;;;;;11.18;nan;100942.63;4984422;28;19929;-33
2022/11/18 11:35:40;;;;;;;;;;;;;;;11.15;nan;100945.00;4981943;28;20021;-32
2022/11/18 11:38:26;;;;;;;;;;;;;;;11.21;nan;100946.69;4985247;28;19980;-32
2022/11/18 11:40:57;;;;;;;;;;;;;;;11.27;nan;100947.56;4984179;28;19943;-33
2022/11/18 11:43:28;;;;;;;;;;;;;;;11.39;nan;100951.75;4979564;28;19963;-32
2022/11/18 11:45:54;;;;;;;;;;;;;;;11.63;nan;100957.69;4984082;28;19930;-33
2022/11/18 11:48:31;;;;;;;;;;;;;;;11.88;nan;100959.91;4985821;28;19933;-32
2022/11/18 11:51:04;;;;;;;;;;;;;;;12.17;nan;100957.78;4984544;28;20020;-32
2022/11/18 11:53:41;;;;;;;;;;;;;;;12.39;nan;100952.38;4979586;28;20007;-33
2022/11/18 11:56:10;;;;;;;;;;;;;;;12.55;nan;100958.69;4984189;28;19984;-32
2022/11/18 11:58:47;;;;;;;;;;;;;;;12.72;nan;100964.75;4985919;28;19925;-33
2022/11/18 12:01:31;;;;;;;;;;;;;;;12.87;nan;100956.81;4985438;28;20202;-32
2022/11/18 12:03:59;;;;;;;;;;;;;;;13.04;nan;100955.84;4983685;28;19992;-32
2022/11/18 12:06:25;;;;;;;;;;;;;;;13.26;nan;100960.03;4980843;28;20005;-33
2022/11/18 12:08:59;;;;;;;;;;;;;;;13.38;nan;100949.06;4984024;28;19997;-33
2022/11/18 12:11:32;;;;;;;;;;;;;;;13.71;nan;100949.75;4981111;28;20296;-33
2022/11/18 12:14:03;;;;;;;;;;;;;;;13.96;nan;100960.59;4984121;28;20375;-33
2022/11/18 12:16:50;;;;;;;;;;;;;;;14.00;nan;100972.47;4986092;28;19922;-33
2022/11/18 12:19:17;;;;;;;;;;;;;;;14.18;nan;100976.56;4985363;28;19963;-32
2022/11/18 12:21:43;;;;;;;;;;;;;;;14.33;nan;100981.97;4984762;28;20088;-33
2022/11/18 12:24:30;;;;;;;;;;;;;;;14.21;nan;100976.84;4984205;28;19975;-32
2022/11/18 12:26:57;;;;;;;;;;;;;;;13.96;nan;100982.16;4983919;28;19925;-32
2022/11/18 12:29:24;;;;;;;;;;;;;;;14.09;nan;100983.56;4980744;28;19926;-32
2022/11/18 12:31:49;;;;;;;;;;;;;;;14.31;nan;100981.44;4983535;28;20293;-33
2022/11/18 12:34:24;;;;;;;;;;;;;;;14.62;nan;100982.31;4984498;28;19932;-32
2022/11/18 12:36:50;;;;;;;;;;;;;;;14.87;nan;100984.19;4984538;28;19992;-32
2022/11/18 12:39:21;;;;;;;;;;;;;;;15.10;nan;100988.25;4985003;28;20292;-33
2022/11/18 12:44:36;;;;;;;;;;;;;;;16.45;nan;100987.16;4982713;28;19933;-33
2022/11/18 12:47:04;;;;;;;;;;;;;;;17.42;nan;100989.84;4986622;28;19926;-32
2022/11/18 12:49:29;;;;;;;;;;;;;;;18.09;nan;100987.16;4991092;28;19925;-33
2022/11/18 12:51:55;;;;;;;;;;;;;;;18.45;nan;100989.34;4990259;28;19922;-33
2022/11/18 12:54:24;;;;;;;;;;;;;;;18.91;nan;100979.41;4990584;28;19929;-33
2022/11/18 12:56:49;;;;;;;;;;;;;;;19.62;nan;100969.13;4989365;28;20016;-33
2022/11/18 12:59:15;;;;;;;;;;;;;;;20.55;nan;100974.97;4989159;28;20043;-33
2022/11/18 13:01:40;;;;;;;;;;;;;;;21.65;nan;100969.63;4988001;28;19929;-33
2022/11/18 13:04:07;;;;;;;;;;;;;;;22.60;nan;100977.91;4987519;28;19933;-33
2022/11/18 13:06:34;;;;;;;;;;;;;;;23.37;nan;100980.78;4988831;28;19921;-33
2022/11/18 13:09:01;;;;;;;;;;;;;;;23.92;nan;100971.66;4986934;28;20000;-33
2022/11/18 13:11:45;;;;;;;;;;;;;;;24.36;nan;100968.28;4988723;28;19917;-33
2022/11/18 13:19:54;;;;;;;;;;;;;;;25.52;nan;100983.66;4988321;28;19928;-33
2022/11/18 13:25:20;;;;;;;;;;;;;;;25.97;nan;100992.91;4988827;28;19932;-33
2022/11/18 13:27:51;;;;;;;;;;;;;;;26.09;nan;100987.38;4987846;28;19944;-33
2022/11/18 13:30:17;;;;;;;;;;;;;;;26.19;nan;100987.69;4989069;28;19921;-34
2022/11/18 13:32:46;;;;;;;;;;;;;;;26.15;nan;100992.28;4988227;28;19926;-34
2022/11/18 13:35:22;;;;;;;;;;;;;;;26.03;nan;101000.56;4987149;28;19926;-34
2022/11/18 13:37:50;;;;;;;;;;;;;;;25.78;nan;101001.72;4987771;28;20296;-34
2022/11/18 13:40:35;;;;;;;;;;;;;;;25.55;nan;100996.69;4990286;28;19925;-33